createdAt,value
2019-04-27T00:02:36.796Z,7.30
2019-04-27T00:05:36.485Z,7.40
2019-04-27T00:08:39.134Z,7.40
2019-04-27T00:11:25.096Z,7.40
2019-04-27T00:14:15.041Z,7.50
2019-04-27T00:17:41.180Z,7.40
2019-04-27T00:23:10.744Z,7.50
2019-04-27T00:25:52.727Z,7.50
2019-04-27T00:28:33.989Z,7.10
2019-04-27T00:31:14.277Z,7.50
2019-04-27T00:33:54.664Z,7.40
2019-04-27T00:36:43.458Z,7.50
2019-04-27T00:39:43.394Z,7.50
2019-04-27T00:42:11.125Z,7.50
2019-04-27T00:44:58.144Z,7.50
2019-04-27T00:47:56.543Z,7.40
2019-04-27T00:50:27.010Z,7.50
2019-04-27T00:53:06.925Z,7.40
2019-04-27T00:56:06.571Z,7.60
2019-04-27T00:59:05.804Z,7.70
2019-04-27T01:02:11.187Z,7.60
2019-04-27T01:04:51.013Z,7.50
2019-04-27T01:07:30.979Z,7.90
2019-04-27T01:10:11.140Z,7.70
2019-04-27T01:12:53.025Z,7.90
2019-04-27T01:15:33.953Z,8.00
2019-04-27T01:18:15.551Z,8.00
2019-04-27T01:20:55.423Z,7.80
2019-04-27T01:23:35.495Z,7.70
2019-04-27T01:26:34.961Z,7.70
2019-04-27T01:32:15.360Z,7.60
2019-04-27T01:34:55.037Z,7.80
2019-04-27T01:37:35.141Z,7.60
2019-04-27T01:40:15.051Z,7.70
2019-04-27T01:42:55.213Z,7.70
2019-04-27T01:45:34.949Z,8.00
2019-04-27T01:48:23.087Z,7.90
2019-04-27T01:50:56.942Z,7.70
2019-04-27T01:53:38.888Z,7.80
2019-04-27T01:56:19.489Z,7.70
2019-04-27T01:59:00.019Z,7.80
2019-04-27T02:02:02.309Z,7.80
2019-04-27T02:05:01.878Z,8.00
2019-04-27T02:07:43.702Z,7.90
2019-04-27T02:10:23.745Z,7.70
2019-04-27T02:13:03.749Z,8.10
2019-04-27T02:15:43.697Z,8.00
2019-04-27T02:18:34.782Z,8.00
2019-04-27T02:21:05.982Z,7.90
2019-04-27T02:23:46.065Z,8.00
2019-04-27T02:26:26.182Z,8.10
2019-04-27T02:29:25.894Z,8.10
2019-04-27T02:35:09.195Z,8.00
2019-04-27T02:37:50.265Z,7.90
2019-04-27T02:40:30.555Z,7.90
2019-04-27T02:43:12.452Z,8.10
2019-04-27T02:45:52.530Z,8.00
2019-04-27T02:48:20.425Z,8.00
2019-04-27T02:54:12.027Z,8.00
2019-04-27T02:56:52.694Z,8.00
2019-04-27T02:59:33.162Z,7.80
2019-04-27T03:02:32.633Z,7.80
2019-04-27T03:05:13.346Z,7.90
2019-04-27T03:07:53.406Z,7.70
2019-04-27T03:10:33.695Z,7.60
2019-04-27T03:19:49.455Z,7.60
2019-04-27T03:22:39.776Z,7.60
2019-04-27T03:25:40.049Z,7.60
2019-04-27T03:28:20.730Z,7.50
2019-04-27T03:31:02.595Z,7.60
2019-04-27T03:33:43.438Z,7.60
2019-04-27T03:36:23.169Z,7.40
2019-04-27T03:39:03.293Z,7.50
2019-04-27T03:41:43.611Z,7.60
2019-04-27T03:47:22.443Z,7.70
2019-04-27T03:50:02.965Z,7.70
2019-04-27T03:55:55.114Z,7.50
2019-04-27T03:58:41.572Z,7.70
2019-04-27T04:01:21.891Z,7.70
2019-04-27T04:04:02.034Z,7.60
2019-04-27T04:06:42.073Z,7.50
2019-04-27T04:09:40.155Z,7.80
2019-04-27T04:12:26.442Z,7.50
2019-04-27T04:15:09.990Z,8.00
2019-04-27T04:17:50.125Z,7.70
2019-04-27T04:20:30.569Z,7.70
2019-04-27T04:23:11.049Z,7.90
2019-04-27T04:25:51.352Z,7.70
2019-04-27T04:28:31.130Z,7.80
2019-04-27T04:31:13.813Z,7.60
2019-04-27T04:33:53.177Z,7.70
2019-04-27T04:36:33.424Z,7.70
2019-04-27T04:39:13.534Z,8.10
2019-04-27T04:44:55.999Z,7.90
2019-04-27T04:50:49.899Z,7.90
2019-04-27T04:53:29.751Z,7.80
2019-04-27T04:56:10.765Z,7.70
2019-04-27T04:58:50.894Z,8.00
2019-04-27T05:01:30.954Z,7.90
2019-04-27T05:04:11.331Z,7.90
2019-04-27T05:06:51.363Z,8.00
2019-04-27T05:09:31.498Z,8.20
2019-04-27T05:12:11.657Z,8.00
2019-04-27T05:14:51.629Z,8.10
2019-04-27T05:17:32.007Z,7.90
2019-04-27T05:20:39.538Z,8.10
2019-04-27T05:23:20.413Z,8.00
2019-04-27T05:26:00.508Z,8.10
2019-04-27T05:28:40.922Z,7.80
2019-04-27T05:31:20.543Z,8.30
2019-04-27T05:37:12.677Z,8.20
2019-04-27T05:39:52.894Z,8.20
2019-04-27T05:42:32.961Z,8.20
2019-04-27T05:45:41.247Z,8.10
2019-04-27T05:48:30.751Z,8.30
2019-04-27T05:51:11.096Z,8.30
2019-04-27T05:53:51.307Z,8.40
2019-04-27T05:56:31.426Z,8.50
2019-04-27T05:59:14.540Z,8.70
2019-04-27T06:01:53.846Z,8.70
2019-04-27T06:04:33.965Z,8.50
2019-04-27T06:07:13.965Z,8.80
2019-04-27T06:09:53.750Z,8.90
2019-04-27T06:12:33.794Z,8.80
2019-04-27T06:15:14.025Z,8.90
2019-04-27T06:17:41.958Z,8.80
2019-04-27T06:20:29.274Z,8.90
2019-04-27T06:23:16.301Z,9.00
2019-04-27T06:25:56.347Z,9.20
2019-04-27T06:28:36.578Z,9.40
2019-04-27T06:31:16.626Z,9.10
2019-04-27T06:33:59.529Z,9.00
2019-04-27T06:36:38.954Z,9.00
2019-04-27T06:39:20.574Z,8.80
2019-04-27T06:42:01.414Z,8.90
2019-04-27T06:44:41.429Z,8.80
2019-04-27T06:47:21.677Z,9.30
2019-04-27T06:50:01.810Z,9.30
2019-04-27T06:52:42.281Z,9.50
2019-04-27T06:55:22.510Z,9.40
2019-04-27T06:58:02.709Z,9.40
2019-04-27T07:00:42.817Z,9.40
2019-04-27T07:03:22.743Z,9.50
2019-04-27T07:06:03.009Z,9.70
2019-04-27T07:08:43.123Z,9.50
2019-04-27T07:11:23.309Z,9.60
2019-04-27T07:14:03.601Z,9.60
2019-04-27T07:16:43.569Z,9.80
2019-04-27T07:19:23.698Z,10.20
2019-04-27T07:22:04.410Z,10.30
2019-04-27T07:24:45.022Z,10.60
2019-04-27T07:27:24.899Z,10.60
2019-04-27T07:30:05.166Z,10.60
2019-04-27T07:32:45.141Z,10.80
2019-04-27T07:35:25.155Z,10.50
2019-04-27T07:38:05.270Z,10.50
2019-04-27T07:40:45.354Z,10.50
2019-04-27T07:46:34.162Z,10.80
2019-04-27T07:49:14.649Z,10.80
2019-04-27T07:51:54.643Z,10.70
2019-04-27T07:54:34.753Z,11.20
2019-04-27T07:57:14.855Z,11.00
2019-04-27T07:59:54.830Z,11.40
2019-04-27T08:02:34.974Z,11.30
2019-04-27T08:05:15.156Z,11.30
2019-04-27T08:07:55.218Z,11.30
2019-04-27T08:10:35.222Z,11.30
2019-04-27T08:13:15.403Z,11.40
2019-04-27T08:15:55.631Z,11.80
2019-04-27T08:18:35.598Z,12.00
2019-04-27T08:21:15.667Z,12.30
2019-04-27T08:23:55.824Z,12.50
2019-04-27T08:26:42.740Z,13.00
2019-04-27T08:29:42.411Z,13.10
2019-04-27T08:32:28.868Z,13.20
2019-04-27T08:35:09.602Z,13.60
2019-04-27T08:37:49.669Z,13.40
2019-04-27T08:40:29.514Z,13.00
2019-04-27T08:43:09.640Z,13.10
2019-04-27T08:45:49.762Z,13.30
2019-04-27T08:48:34.738Z,12.90
2019-04-27T08:51:12.108Z,13.00
2019-04-27T08:53:52.040Z,12.50
2019-04-27T08:56:32.134Z,12.00
2019-04-27T08:59:12.388Z,12.00
2019-04-27T09:01:52.425Z,11.70
2019-04-27T09:04:32.722Z,11.50
2019-04-27T09:07:33.372Z,11.40
2019-04-27T09:10:19.310Z,11.60
2019-04-27T09:13:06.443Z,11.40
2019-04-27T09:19:08.707Z,11.10
2019-04-27T09:22:15.877Z,10.90
2019-04-27T09:24:49.661Z,11.10
2019-04-27T09:30:11.791Z,11.40
2019-04-27T09:32:40.786Z,11.50
2019-04-27T09:35:28.405Z,11.60
2019-04-27T09:38:08.315Z,11.70
2019-04-27T09:40:48.427Z,11.70
2019-04-27T09:43:28.570Z,12.10
2019-04-27T09:46:08.672Z,12.60
2019-04-27T09:48:48.630Z,13.00
2019-04-27T09:51:28.722Z,13.90
2019-04-27T09:54:08.861Z,14.40
2019-04-27T09:56:49.054Z,14.80
2019-04-27T09:59:29.374Z,15.20
2019-04-27T10:02:09.469Z,15.40
2019-04-27T10:04:50.261Z,15.60
2019-04-27T10:07:29.914Z,15.70
2019-04-27T10:10:10.206Z,15.60
2019-04-27T10:12:50.237Z,15.60
2019-04-27T10:15:30.299Z,15.70
2019-04-27T10:18:10.478Z,15.70
2019-04-27T10:20:59.017Z,15.50
2019-04-27T10:23:32.738Z,15.60
2019-04-27T10:26:12.885Z,15.40
2019-04-27T10:28:52.794Z,15.60
2019-04-27T10:31:33.023Z,15.50
2019-04-27T10:34:13.182Z,15.70
2019-04-27T10:36:40.951Z,15.40
2019-04-27T10:39:27.989Z,15.30
2019-04-27T10:42:08.407Z,15.00
2019-04-27T10:44:50.486Z,15.10
2019-04-27T10:47:30.278Z,14.90
2019-04-27T10:50:10.936Z,14.70
2019-04-27T10:52:53.561Z,14.50
2019-04-27T10:55:32.709Z,14.50
2019-04-27T10:58:13.094Z,14.50
2019-04-27T11:03:58.548Z,14.60
2019-04-27T11:06:49.377Z,14.70
2019-04-27T11:09:29.814Z,14.70
2019-04-27T11:12:09.916Z,14.80
2019-04-27T11:14:50.979Z,14.50
2019-04-27T11:17:31.278Z,14.80
2019-04-27T11:20:11.489Z,14.50
2019-04-27T11:22:51.681Z,14.50
2019-04-27T11:25:31.721Z,14.40
2019-04-27T11:28:11.841Z,14.30
2019-04-27T11:30:52.221Z,14.10
2019-04-27T11:33:32.362Z,14.20
2019-04-27T11:36:31.967Z,14.00
2019-04-27T11:39:11.729Z,13.80
2019-04-27T11:41:51.961Z,13.60
2019-04-27T11:44:31.961Z,13.80
2019-04-27T11:46:59.728Z,13.70
2019-04-27T11:49:46.813Z,13.80
2019-04-27T11:52:33.862Z,13.80
2019-04-27T11:55:01.455Z,13.80
2019-04-27T11:57:48.645Z,13.90
2019-04-27T12:00:36.445Z,13.90
2019-04-27T12:03:17.596Z,14.10
2019-04-27T12:08:55.762Z,14.00
2019-04-27T12:11:36.338Z,14.00
2019-04-27T12:14:16.174Z,14.00
2019-04-27T12:16:56.419Z,14.00
2019-04-27T12:19:36.389Z,14.00
2019-04-27T12:22:16.502Z,14.10
2019-04-27T12:24:56.744Z,14.00
2019-04-27T12:31:02.332Z,14.00
2019-04-27T12:33:42.778Z,14.10
2019-04-27T12:36:10.501Z,14.10
2019-04-27T12:38:57.611Z,14.20
2019-04-27T12:41:46.185Z,14.20
2019-04-27T12:44:27.046Z,14.10
2019-04-27T12:47:07.877Z,14.30
2019-04-27T12:49:50.172Z,14.30
2019-04-27T12:52:31.478Z,14.20
2019-04-27T12:55:31.018Z,14.40
2019-04-27T13:01:08.145Z,14.60
2019-04-27T13:03:36.449Z,14.30
2019-04-27T13:06:24.889Z,14.70
2019-04-27T13:09:07.039Z,14.70
2019-04-27T13:11:34.567Z,14.90
2019-04-27T13:14:21.614Z,15.00
2019-04-27T13:17:08.734Z,15.00
2019-04-27T13:19:48.342Z,15.00
2019-04-27T13:22:28.442Z,15.10
2019-04-27T13:25:08.642Z,15.00
2019-04-27T13:27:51.044Z,14.90
2019-04-27T13:30:30.747Z,15.00
2019-04-27T13:33:11.121Z,15.00
2019-04-27T13:35:51.507Z,15.00
2019-04-27T13:38:31.268Z,14.90
2019-04-27T13:41:11.505Z,14.90
2019-04-27T13:43:51.602Z,15.00
2019-04-27T13:46:51.321Z,15.10
2019-04-27T13:49:50.530Z,15.40
2019-04-27T13:52:31.456Z,15.20
2019-04-27T13:55:11.430Z,15.30
2019-04-27T13:57:51.425Z,15.50
2019-04-27T14:00:32.669Z,15.70
2019-04-27T14:03:14.355Z,15.70
2019-04-27T14:05:54.671Z,15.90
2019-04-27T14:08:35.683Z,15.80
2019-04-27T14:11:15.626Z,15.90
2019-04-27T14:13:55.702Z,15.70
2019-04-27T14:16:35.635Z,15.70
2019-04-27T14:19:15.696Z,15.60
2019-04-27T14:21:55.891Z,15.90
2019-04-27T14:24:42.310Z,15.90
2019-04-27T14:27:24.701Z,16.10
2019-04-27T14:30:04.433Z,15.90
2019-04-27T14:32:44.624Z,15.80
2019-04-27T14:35:24.766Z,15.90
2019-04-27T14:38:04.781Z,15.90
2019-04-27T14:40:44.865Z,15.70
2019-04-27T14:43:12.513Z,15.90
2019-04-27T14:45:52.213Z,15.80
2019-04-27T14:48:21.238Z,15.90
2019-04-27T14:51:08.755Z,15.70
2019-04-27T14:53:58.797Z,15.90
2019-04-27T14:56:39.060Z,15.90
2019-04-27T14:59:19.370Z,15.80
2019-04-27T15:02:00.081Z,15.50
2019-04-27T15:04:42.432Z,15.80
2019-04-27T15:07:22.462Z,15.50
2019-04-27T15:10:04.736Z,15.30
2019-04-27T15:12:44.905Z,15.80
2019-04-27T15:15:12.866Z,15.80
2019-04-27T15:18:04.310Z,15.80
2019-04-27T15:20:48.737Z,16.10
2019-04-27T15:23:30.840Z,16.20
2019-04-27T15:26:15.458Z,16.20
2019-04-27T15:28:56.364Z,16.70
2019-04-27T15:31:40.829Z,16.40
2019-04-27T15:34:41.854Z,16.50
2019-04-27T15:40:58.195Z,16.40
2019-04-27T15:43:40.626Z,16.30
2019-04-27T15:46:20.199Z,16.60
2019-04-27T15:49:03.105Z,16.60
2019-04-27T15:51:42.809Z,16.60
2019-04-27T15:54:28.636Z,16.40
2019-04-27T15:57:09.582Z,16.10
2019-04-27T15:59:48.265Z,16.40
2019-04-27T16:02:28.934Z,16.50
2019-04-27T16:05:08.733Z,16.50
2019-04-27T16:07:48.663Z,16.60
2019-04-27T16:10:32.849Z,16.20
2019-04-27T16:13:15.183Z,15.90
2019-04-27T16:15:54.163Z,15.70
2019-04-27T16:18:35.301Z,15.40
2019-04-27T16:21:15.342Z,15.30
2019-04-27T16:23:55.520Z,14.90
2019-04-27T16:26:36.139Z,15.00
2019-04-27T16:32:15.283Z,14.20
2019-04-27T16:37:59.999Z,13.30
2019-04-27T16:40:46.530Z,13.00
2019-04-27T16:43:30.030Z,12.70
2019-04-27T16:45:57.862Z,12.60
2019-04-27T16:48:45.120Z,12.60
2019-04-27T16:51:12.885Z,12.50
2019-04-27T16:54:00.348Z,12.60
2019-04-27T16:56:45.827Z,12.70
2019-04-27T17:02:05.833Z,12.80
2019-04-27T17:04:54.086Z,13.10
2019-04-27T17:07:31.700Z,13.10
2019-04-27T17:10:09.585Z,12.90
2019-04-27T17:12:41.365Z,12.70
2019-04-27T17:12:51.172Z,12.80
2019-04-27T17:15:53.529Z,12.20
2019-04-27T17:18:52.963Z,12.20
2019-04-27T17:21:33.442Z,12.10
2019-04-27T17:24:33.489Z,12.00
2019-04-27T17:27:16.243Z,11.80
2019-04-27T17:29:59.541Z,11.70
2019-04-27T17:35:51.926Z,11.20
2019-04-27T17:38:31.943Z,11.20
2019-04-27T17:41:12.661Z,11.00
2019-04-27T17:43:53.038Z,10.90
2019-04-27T17:46:33.127Z,10.80
2019-04-27T17:52:26.629Z,10.60
2019-04-27T17:55:07.948Z,10.60
2019-04-27T17:57:49.068Z,10.50
2019-04-27T18:00:32.903Z,10.40
2019-04-27T18:09:18.728Z,10.60
2019-04-27T18:11:59.326Z,10.70
2019-04-27T18:17:54.360Z,10.60
2019-04-27T18:20:34.453Z,10.60
2019-04-27T18:23:18.554Z,10.20
2019-04-27T18:29:08.150Z,10.00
2019-04-27T18:31:53.076Z,10.40
2019-04-27T18:34:29.937Z,9.90
2019-04-27T18:37:10.113Z,10.20
2019-04-27T18:39:54.665Z,10.20
2019-04-27T18:42:23.209Z,10.40
2019-04-27T18:45:08.622Z,10.10
2019-04-27T18:47:53.751Z,10.10
2019-04-27T18:50:53.138Z,10.10
2019-04-27T18:56:51.700Z,10.00
2019-04-27T18:59:28.864Z,10.20
2019-04-27T19:02:09.537Z,10.20
2019-04-27T19:04:50.147Z,10.30
2019-04-27T19:07:30.683Z,10.30
2019-04-27T19:10:10.956Z,10.20
2019-04-27T19:12:51.250Z,10.30
2019-04-27T19:15:31.165Z,10.20
2019-04-27T19:18:11.651Z,10.20
2019-04-27T19:20:51.426Z,10.40
2019-04-27T19:23:31.687Z,10.40
2019-04-27T19:26:18.631Z,10.20
2019-04-27T19:29:08.435Z,10.20
2019-04-27T19:31:52.814Z,10.10
2019-04-27T19:34:32.695Z,10.30
2019-04-27T19:37:13.163Z,10.30
2019-04-27T19:39:52.985Z,10.30
2019-04-27T19:42:32.946Z,10.20
2019-04-27T19:45:13.540Z,10.10
2019-04-27T19:47:52.289Z,10.00
2019-04-27T19:50:39.587Z,10.30
2019-04-27T19:53:19.520Z,10.60
2019-04-27T19:56:02.242Z,10.20
2019-04-27T20:01:51.441Z,10.10
2019-04-27T20:04:33.072Z,10.00
2019-04-27T20:07:13.955Z,9.80
2019-04-27T20:13:04.881Z,9.50
2019-04-27T20:15:45.094Z,9.30
2019-04-27T20:18:25.181Z,9.20
2019-04-27T20:21:06.483Z,9.10
2019-04-27T20:23:46.443Z,9.30
2019-04-27T20:26:26.284Z,9.40
2019-04-27T20:29:06.602Z,9.60
2019-04-27T20:31:46.761Z,9.70
2019-04-27T20:34:15.453Z,9.80
2019-04-27T20:37:02.478Z,9.70
2019-04-27T20:39:43.286Z,9.60
2019-04-27T20:42:23.071Z,9.40
2019-04-27T20:45:03.206Z,9.30
2019-04-27T20:47:43.266Z,9.30
2019-04-27T20:50:10.999Z,8.80
2019-04-27T20:55:53.494Z,8.60
2019-04-27T20:58:33.925Z,8.80
2019-04-27T21:01:14.222Z,8.60
2019-04-27T21:03:56.576Z,8.70
2019-04-27T21:06:40.806Z,8.90
2019-04-27T21:09:22.286Z,8.50
2019-04-27T21:12:02.946Z,8.60
2019-04-27T21:14:42.786Z,8.20
2019-04-27T21:17:22.916Z,8.00
2019-04-27T21:20:02.643Z,8.50
2019-04-27T21:22:43.197Z,8.20
2019-04-27T21:25:23.346Z,8.50
2019-04-27T21:28:15.497Z,8.40
2019-04-27T21:30:45.239Z,8.60
2019-04-27T21:33:12.828Z,8.40
2019-04-27T21:36:01.410Z,8.20
2019-04-27T21:41:31.103Z,8.20
2019-04-27T21:44:11.555Z,8.10
2019-04-27T21:46:51.700Z,8.10
2019-04-27T21:49:38.758Z,8.10
2019-04-27T21:55:27.290Z,7.90
2019-04-27T21:58:06.937Z,8.20
2019-04-27T22:01:06.577Z,8.10
2019-04-27T22:03:46.342Z,8.10
2019-04-27T22:06:26.392Z,8.00
2019-04-27T22:09:08.246Z,7.90
2019-04-27T22:11:48.662Z,7.90
2019-04-27T22:14:16.321Z,8.00
2019-04-27T22:17:03.359Z,7.90
2019-04-27T22:22:54.062Z,8.00
2019-04-27T22:25:35.815Z,7.90
2019-04-27T22:28:16.445Z,7.90
2019-04-27T22:30:56.415Z,8.10
2019-04-27T22:33:36.486Z,8.00
2019-04-27T22:36:16.798Z,8.30
2019-04-27T22:39:01.573Z,8.00
2019-04-27T22:45:19.829Z,7.90
2019-04-27T22:48:01.177Z,8.20
2019-04-27T22:50:41.574Z,8.50
2019-04-27T22:53:21.724Z,8.50
2019-04-27T22:56:22.295Z,8.50
2019-04-27T22:59:22.261Z,8.40
2019-04-27T23:02:21.803Z,8.40
2019-04-27T23:07:51.755Z,8.30
2019-04-27T23:10:21.254Z,8.40
2019-04-27T23:18:46.325Z,8.50
2019-04-27T23:21:33.381Z,8.30
2019-04-27T23:24:13.611Z,8.60
2019-04-27T23:26:53.713Z,8.70
2019-04-27T23:29:33.848Z,8.70
2019-04-27T23:35:21.245Z,8.50
2019-04-27T23:38:14.489Z,8.50
2019-04-27T23:40:43.389Z,8.60
2019-04-27T23:43:23.453Z,8.50
2019-04-27T23:46:11.547Z,8.70
2019-04-27T23:48:53.917Z,9.00
2019-04-27T23:51:53.123Z,8.90
2019-04-27T23:54:20.788Z,9.20
2019-04-27T23:56:48.725Z,9.10
2019-04-27T23:59:35.749Z,8.90
